Time;durP1;ratioP1;P1;durP2;ratioP2;P2;SDS_P1;SDS_P2;PMS_P1;PMS_P2;Temp;Humidity;BMP_temperature;BMP_pressure;BME280_temperature;BME280_humidity;BME280_pressure;Samples;Min_cycle;Max_cycle;Signal;HPM_P1;HPM_P2
2023/05/20 00:00:03;;;;;;;;;;;11.40;99.90;;;;;;5082549;28;19924;-81
2023/05/20 00:02:29;;;;;;;;;;;11.30;99.90;;;;;;5065668;28;19943;-80
2023/05/20 00:04:55;;;;;;;;;;;11.30;99.90;;;;;;5081829;28;19928;-80
2023/05/20 00:07:21;;;;;;;;;;;11.30;99.90;;;;;;5076954;28;19928;-80
2023/05/20 00:09:46;;;;;;;;;;;11.30;99.90;;;;;;5045526;28;20269;-80
2023/05/20 00:12:12;;;;;;;;;;;11.40;99.90;;;;;;5092937;28;19931;-81
2023/05/20 00:14:38;;;;;;;;;;;11.40;99.90;;;;;;5096143;28;19942;-80
2023/05/20 00:17:03;;;;;;;;;;;11.40;99.90;;;;;;5093194;28;20303;-80
2023/05/20 00:19:29;;;;;;;;;;;11.40;99.90;;;;;;5077344;28;19932;-81
2023/05/20 00:21:56;;;;;;;;;;;11.50;99.90;;;;;;5096380;28;19970;-81
2023/05/20 00:24:23;;;;;;;;;;;11.50;99.90;;;;;;5084380;28;19928;-80
2023/05/20 00:26:48;;;;;;;;;;;11.50;99.90;;;;;;5086249;28;19924;-80
2023/05/20 00:29:14;;;;;;;;;;;11.50;99.90;;;;;;5076285;28;19947;-80
2023/05/20 00:31:39;;;;;;;;;;;11.50;99.90;;;;;;5093616;28;19983;-80
2023/05/20 00:34:05;;;;;;;;;;;11.40;99.90;;;;;;5081406;28;19980;-80
2023/05/20 00:36:31;;;;;;;;;;;11.40;99.90;;;;;;5063072;28;19928;-80
2023/05/20 00:38:56;;;;;;;;;;;11.50;99.90;;;;;;5077321;28;20657;-80
2023/05/20 00:41:22;;;;;;;;;;;11.40;99.90;;;;;;5065031;28;19935;-81
2023/05/20 00:43:47;;;;;;;;;;;11.40;99.90;;;;;;5111057;28;19930;-81
2023/05/20 00:46:13;;;;;;;;;;;11.40;99.90;;;;;;5077975;28;19962;-80
2023/05/20 00:48:40;;;;;;;;;;;11.40;99.90;;;;;;5078327;28;20374;-80
2023/05/20 00:51:06;;;;;;;;;;;11.40;99.90;;;;;;5108856;28;19924;-80
2023/05/20 00:53:32;;;;;;;;;;;11.40;99.90;;;;;;5077312;28;19928;-80
2023/05/20 00:55:58;;;;;;;;;;;11.40;99.90;;;;;;5068300;28;19924;-80
2023/05/20 00:58:24;;;;;;;;;;;11.30;99.90;;;;;;5094294;28;19947;-81
2023/05/20 01:00:49;;;;;;;;;;;11.40;99.90;;;;;;5109192;28;19925;-80
2023/05/20 01:03:15;;;;;;;;;;;11.40;99.90;;;;;;5074107;28;19986;-80
2023/05/20 01:05:41;;;;;;;;;;;11.40;99.90;;;;;;5082329;28;19930;-80
2023/05/20 01:08:06;;;;;;;;;;;11.40;99.90;;;;;;5043921;28;19924;-80
2023/05/20 01:10:32;;;;;;;;;;;11.40;99.90;;;;;;5049412;28;19924;-81
2023/05/20 01:13:00;;;;;;;;;;;11.40;99.90;;;;;;5078194;28;19931;-80
2023/05/20 01:15:26;;;;;;;;;;;11.40;99.90;;;;;;5076156;28;19928;-81
2023/05/20 01:17:57;;;;;;;;;;;11.50;99.90;;;;;;5071776;28;19931;-80
2023/05/20 01:20:23;;;;;;;;;;;11.50;99.90;;;;;;5113546;28;19935;-80
2023/05/20 01:22:53;;;;;;;;;;;11.50;99.90;;;;;;5076928;28;19932;-81
2023/05/20 01:25:18;;;;;;;;;;;11.50;99.90;;;;;;5106468;28;19928;-81
2023/05/20 01:27:44;;;;;;;;;;;11.50;99.90;;;;;;5086328;28;20430;-81
2023/05/20 01:30:10;;;;;;;;;;;11.50;99.90;;;;;;5068607;28;19939;-81
2023/05/20 01:32:37;;;;;;;;;;;11.50;99.90;;;;;;5114307;28;19935;-81
2023/05/20 01:35:03;;;;;;;;;;;11.50;99.90;;;;;;5082267;28;20403;-80
2023/05/20 01:37:30;;;;;;;;;;;11.40;99.90;;;;;;5062831;28;19939;-80
2023/05/20 01:39:56;;;;;;;;;;;11.50;99.90;;;;;;5066307;28;19934;-80
2023/05/20 01:42:21;;;;;;;;;;;11.40;99.90;;;;;;5057753;28;19992;-80
2023/05/20 01:44:47;;;;;;;;;;;11.50;99.90;;;;;;5064732;28;19924;-80
2023/05/20 01:47:13;;;;;;;;;;;11.50;99.90;;;;;;5045561;28;19925;-80
2023/05/20 01:49:38;;;;;;;;;;;11.50;99.90;;;;;;5048234;28;19943;-80
2023/05/20 01:52:04;;;;;;;;;;;11.50;99.90;;;;;;5095113;28;19928;-80
2023/05/20 01:54:30;;;;;;;;;;;11.50;99.90;;;;;;5079937;28;19924;-80
2023/05/20 01:56:55;;;;;;;;;;;11.50;99.90;;;;;;5064731;28;19924;-81
2023/05/20 01:59:21;;;;;;;;;;;11.40;99.90;;;;;;5107375;28;19924;-80
2023/05/20 02:01:47;;;;;;;;;;;11.50;99.90;;;;;;5107377;28;19924;-80
2023/05/20 02:04:12;;;;;;;;;;;11.50;99.90;;;;;;5091586;28;19993;-81
2023/05/20 02:06:38;;;;;;;;;;;11.40;99.90;;;;;;5059823;28;20022;-80
2023/05/20 02:09:03;;;;;;;;;;;11.50;99.90;;;;;;5076549;28;19927;-80
2023/05/20 02:11:29;;;;;;;;;;;11.40;99.90;;;;;;5060533;28;20403;-80
2023/05/20 02:13:55;;;;;;;;;;;11.40;99.90;;;;;;5093153;28;19924;-81
2023/05/20 02:16:21;;;;;;;;;;;11.30;99.90;;;;;;5077147;28;19928;-80
2023/05/20 02:18:46;;;;;;;;;;;11.40;99.90;;;;;;5081049;28;19924;-80
2023/05/20 02:21:12;;;;;;;;;;;11.30;99.90;;;;;;5070629;28;19950;-81
2023/05/20 02:23:37;;;;;;;;;;;11.40;99.90;;;;;;5077328;28;19984;-80
2023/05/20 02:26:03;;;;;;;;;;;11.30;99.90;;;;;;5083595;28;19924;-80
2023/05/20 02:28:28;;;;;;;;;;;11.30;99.90;;;;;;5110083;28;20561;-80
2023/05/20 02:30:54;;;;;;;;;;;11.30;99.90;;;;;;5047038;28;19924;-80
2023/05/20 02:33:20;;;;;;;;;;;11.30;99.90;;;;;;5071412;28;19924;-81
2023/05/20 02:35:45;;;;;;;;;;;11.40;99.90;;;;;;5079264;28;20339;-80
2023/05/20 02:38:11;;;;;;;;;;;11.30;99.90;;;;;;5091223;28;19938;-80
2023/05/20 02:40:37;;;;;;;;;;;11.40;99.90;;;;;;5107945;28;19935;-80
2023/05/20 02:43:02;;;;;;;;;;;11.40;99.90;;;;;;5074964;28;20049;-80
2023/05/20 02:45:28;;;;;;;;;;;11.40;99.90;;;;;;5074888;28;19928;-80
2023/05/20 02:47:54;;;;;;;;;;;11.40;99.90;;;;;;5065689;28;19973;-80
2023/05/20 02:50:19;;;;;;;;;;;11.40;99.90;;;;;;5090225;28;20035;-80
2023/05/20 02:52:46;;;;;;;;;;;11.30;99.90;;;;;;5096815;28;19939;-80
2023/05/20 02:55:11;;;;;;;;;;;11.40;99.90;;;;;;5080034;28;19924;-79
2023/05/20 02:57:37;;;;;;;;;;;11.40;99.90;;;;;;5045538;28;19924;-80
2023/05/20 03:00:07;;;;;;;;;;;11.40;99.90;;;;;;5076570;28;19924;-80
2023/05/20 03:02:33;;;;;;;;;;;11.40;99.90;;;;;;5075671;28;19960;-80
2023/05/20 03:04:58;;;;;;;;;;;11.30;99.90;;;;;;5064457;28;19939;-80
2023/05/20 03:07:24;;;;;;;;;;;11.40;99.90;;;;;;5077215;28;19932;-80
2023/05/20 03:09:50;;;;;;;;;;;11.40;99.90;;;;;;5079703;28;19924;-80
2023/05/20 03:12:16;;;;;;;;;;;11.30;99.90;;;;;;5109363;28;19928;-80
2023/05/20 03:14:41;;;;;;;;;;;11.30;99.90;;;;;;5096343;28;19932;-80
2023/05/20 03:17:07;;;;;;;;;;;11.30;99.90;;;;;;5082502;28;19924;-80
2023/05/20 03:19:33;;;;;;;;;;;11.30;99.90;;;;;;5079646;28;19935;-80
2023/05/20 03:21:59;;;;;;;;;;;11.30;99.90;;;;;;5085311;28;19928;-81
2023/05/20 03:24:25;;;;;;;;;;;11.30;99.90;;;;;;5093950;28;19930;-80
2023/05/20 03:26:51;;;;;;;;;;;11.30;99.90;;;;;;5089215;28;19974;-80
2023/05/20 03:29:16;;;;;;;;;;;11.20;99.90;;;;;;5071533;28;19924;-80
2023/05/20 03:31:42;;;;;;;;;;;11.20;99.90;;;;;;5084739;28;19923;-80
2023/05/20 03:34:08;;;;;;;;;;;11.20;99.90;;;;;;5083268;28;19928;-80
2023/05/20 03:36:33;;;;;;;;;;;11.20;99.90;;;;;;5066823;28;19950;-80
2023/05/20 03:39:00;;;;;;;;;;;11.10;99.90;;;;;;5075223;28;19928;-80
2023/05/20 03:41:26;;;;;;;;;;;11.20;99.90;;;;;;5080177;28;19924;-80
2023/05/20 03:43:52;;;;;;;;;;;11.20;99.90;;;;;;5084516;28;19939;-79
2023/05/20 03:46:17;;;;;;;;;;;11.10;99.90;;;;;;5065862;28;20410;-80
2023/05/20 03:48:43;;;;;;;;;;;11.10;99.90;;;;;;5083658;28;19935;-80
2023/05/20 03:51:08;;;;;;;;;;;11.10;99.90;;;;;;5081300;28;19929;-80
2023/05/20 03:53:34;;;;;;;;;;;11.00;99.90;;;;;;5082840;28;19930;-81
2023/05/20 03:56:00;;;;;;;;;;;11.00;99.90;;;;;;5081326;28;19924;-80
2023/05/20 03:58:28;;;;;;;;;;;11.00;99.90;;;;;;5083881;28;19932;-81
2023/05/20 04:00:53;;;;;;;;;;;11.00;99.90;;;;;;5082069;28;23560;-80
2023/05/20 04:03:19;;;;;;;;;;;11.00;99.90;;;;;;5077833;28;19963;-80
2023/05/20 04:05:45;;;;;;;;;;;10.90;99.90;;;;;;5081835;28;19975;-81
2023/05/20 04:08:12;;;;;;;;;;;10.90;99.90;;;;;;5074167;28;19995;-80
2023/05/20 04:10:39;;;;;;;;;;;10.90;99.90;;;;;;5062927;28;19946;-80
2023/05/20 04:13:05;;;;;;;;;;;10.90;99.90;;;;;;5064754;28;20419;-80
2023/05/20 04:15:34;;;;;;;;;;;11.00;99.90;;;;;;5095307;28;19932;-80
2023/05/20 04:18:00;;;;;;;;;;;11.00;99.90;;;;;;5112631;28;20295;-80
2023/05/20 04:20:25;;;;;;;;;;;11.00;99.90;;;;;;5093032;28;19932;-80
2023/05/20 04:22:52;;;;;;;;;;;11.10;99.90;;;;;;5084135;28;20010;-80
2023/05/20 04:25:18;;;;;;;;;;;11.10;99.90;;;;;;5068051;28;19923;-80
2023/05/20 04:27:44;;;;;;;;;;;11.10;99.90;;;;;;5111833;28;19929;-80
2023/05/20 04:30:10;;;;;;;;;;;11.10;99.90;;;;;;5109572;28;19928;-80
2023/05/20 04:32:36;;;;;;;;;;;11.20;99.90;;;;;;5077889;28;20344;-81
2023/05/20 04:35:01;;;;;;;;;;;11.20;99.90;;;;;;5068551;28;19946;-80
2023/05/20 04:37:27;;;;;;;;;;;11.30;99.90;;;;;;5061539;28;19928;-80
2023/05/20 04:39:53;;;;;;;;;;;11.30;99.90;;;;;;5096393;28;19924;-80
2023/05/20 04:42:20;;;;;;;;;;;11.30;99.90;;;;;;5077696;28;19949;-80
2023/05/20 04:44:46;;;;;;;;;;;11.30;99.90;;;;;;5074196;28;19988;-80
2023/05/20 04:47:12;;;;;;;;;;;11.40;99.90;;;;;;5070920;28;19938;-80
2023/05/20 04:49:38;;;;;;;;;;;11.40;99.90;;;;;;5079793;28;19999;-80
2023/05/20 04:52:04;;;;;;;;;;;11.50;99.90;;;;;;5079489;28;19927;-80
2023/05/20 04:54:31;;;;;;;;;;;11.50;99.90;;;;;;5106155;28;19925;-80
2023/05/20 04:56:57;;;;;;;;;;;11.70;99.90;;;;;;5078066;28;19928;-81
2023/05/20 04:59:23;;;;;;;;;;;11.90;99.90;;;;;;5064739;28;19928;-80
2023/05/20 05:01:48;;;;;;;;;;;12.20;99.90;;;;;;5079095;28;20008;-81
2023/05/20 05:04:14;;;;;;;;;;;12.40;99.90;;;;;;5077296;28;19931;-81
2023/05/20 05:06:40;;;;;;;;;;;12.50;99.90;;;;;;5061928;28;19924;-81
2023/05/20 05:09:06;;;;;;;;;;;12.80;99.90;;;;;;5110720;28;19924;-80
2023/05/20 05:11:32;;;;;;;;;;;13.10;99.90;;;;;;5081390;28;20342;-80
2023/05/20 05:13:57;;;;;;;;;;;13.40;99.90;;;;;;5081710;28;19928;-81
2023/05/20 05:16:23;;;;;;;;;;;13.80;99.90;;;;;;5074868;28;19924;-80
2023/05/20 05:18:49;;;;;;;;;;;14.10;99.90;;;;;;5092813;28;19943;-81
2023/05/20 05:21:14;;;;;;;;;;;14.30;99.90;;;;;;5073632;28;19935;-80
2023/05/20 05:23:41;;;;;;;;;;;14.50;99.90;;;;;;5064203;28;19932;-80
2023/05/20 05:26:07;;;;;;;;;;;14.70;99.90;;;;;;5057827;28;19934;-80
2023/05/20 05:28:32;;;;;;;;;;;14.80;99.90;;;;;;5098274;28;19959;-80
2023/05/20 05:30:58;;;;;;;;;;;15.00;99.90;;;;;;5065999;28;19928;-80
2023/05/20 05:33:23;;;;;;;;;;;15.10;99.90;;;;;;5114683;28;19924;-80
2023/05/20 05:35:49;;;;;;;;;;;15.40;99.90;;;;;;5079156;28;20811;-80
2023/05/20 05:38:15;;;;;;;;;;;15.50;99.90;;;;;;5079874;28;19973;-81
2023/05/20 05:40:41;;;;;;;;;;;15.60;99.90;;;;;;5081528;28;19991;-80
2023/05/20 05:43:07;;;;;;;;;;;15.80;99.90;;;;;;5081639;28;19985;-80
2023/05/20 05:45:32;;;;;;;;;;;15.90;99.90;;;;;;5063176;28;19932;-81
2023/05/20 05:47:58;;;;;;;;;;;16.00;99.90;;;;;;5097852;28;19924;-83
2023/05/20 05:50:24;;;;;;;;;;;16.10;99.90;;;;;;5080143;28;19931;-82
2023/05/20 05:52:49;;;;;;;;;;;16.10;99.90;;;;;;5063753;28;19928;-83
2023/05/20 05:55:15;;;;;;;;;;;16.30;99.90;;;;;;5049536;28;19924;-83
2023/05/20 05:57:41;;;;;;;;;;;16.70;99.90;;;;;;5062008;28;19991;-83
2023/05/20 06:00:07;;;;;;;;;;;16.80;99.90;;;;;;5064661;28;19935;-82
2023/05/20 06:02:35;;;;;;;;;;;17.00;99.90;;;;;;5057942;28;19935;-83
2023/05/20 06:05:01;;;;;;;;;;;17.30;99.90;;;;;;5076628;28;19928;-83
2023/05/20 06:07:27;;;;;;;;;;;17.60;99.60;;;;;;5091100;28;19924;-82
2023/05/20 06:09:52;;;;;;;;;;;17.60;96.70;;;;;;5057992;28;20005;-83
2023/05/20 06:12:18;;;;;;;;;;;17.70;96.80;;;;;;5043595;28;19924;-83
2023/05/20 06:14:44;;;;;;;;;;;17.80;95.40;;;;;;5061548;28;20366;-83
2023/05/20 06:17:09;;;;;;;;;;;17.90;94.40;;;;;;5047964;28;19955;-83
2023/05/20 06:19:35;;;;;;;;;;;17.90;92.80;;;;;;5075916;28;19946;-82
2023/05/20 06:22:00;;;;;;;;;;;18.00;93.00;;;;;;5079178;28;19924;-80
2023/05/20 06:24:26;;;;;;;;;;;18.00;91.50;;;;;;5065042;28;19935;-84
2023/05/20 06:26:52;;;;;;;;;;;18.00;92.40;;;;;;5068781;28;19924;-80
2023/05/20 06:29:17;;;;;;;;;;;18.00;91.00;;;;;;5076590;28;19928;-80
2023/05/20 06:31:43;;;;;;;;;;;18.20;93.00;;;;;;5081819;28;19954;-81
2023/05/20 06:34:08;;;;;;;;;;;18.30;91.30;;;;;;5092333;28;19932;-81
2023/05/20 06:36:34;;;;;;;;;;;18.40;91.30;;;;;;5078033;28;20026;-81
2023/05/20 06:39:00;;;;;;;;;;;18.50;91.40;;;;;;5092713;28;19928;-81
2023/05/20 06:41:26;;;;;;;;;;;18.60;87.80;;;;;;5077816;28;19946;-81
2023/05/20 06:43:51;;;;;;;;;;;18.60;83.10;;;;;;5076255;28;19924;-82
2023/05/20 06:46:17;;;;;;;;;;;18.60;86.80;;;;;;5091357;28;19943;-81
2023/05/20 06:48:42;;;;;;;;;;;18.80;87.50;;;;;;5053398;28;19936;-81
2023/05/20 06:51:08;;;;;;;;;;;18.80;84.20;;;;;;5078231;28;19967;-81
2023/05/20 06:53:34;;;;;;;;;;;19.00;85.60;;;;;;5083355;28;20890;-81
2023/05/20 06:56:00;;;;;;;;;;;19.20;86.00;;;;;;5081418;28;19939;-81
2023/05/20 06:58:25;;;;;;;;;;;19.20;83.30;;;;;;5095950;28;19935;-82
2023/05/20 07:00:51;;;;;;;;;;;19.30;81.30;;;;;;5074448;28;19924;-81
2023/05/20 07:03:16;;;;;;;;;;;19.40;83.70;;;;;;5068269;28;19931;-85
2023/05/20 07:05:42;;;;;;;;;;;19.50;82.80;;;;;;5079242;28;19927;-85
2023/05/20 07:08:08;;;;;;;;;;;19.50;81.00;;;;;;5044250;28;19951;-84
2023/05/20 07:10:33;;;;;;;;;;;19.70;81.80;;;;;;5062641;28;19980;-84
2023/05/20 07:12:59;;;;;;;;;;;19.80;79.50;;;;;;5078146;28;19931;-84
2023/05/20 07:15:25;;;;;;;;;;;19.90;74.90;;;;;;5054939;28;19964;-85
2023/05/20 07:17:50;;;;;;;;;;;20.00;79.30;;;;;;5061455;28;19939;-85
2023/05/20 07:20:16;;;;;;;;;;;20.00;75.20;;;;;;5078408;28;19928;-82
2023/05/20 07:22:43;;;;;;;;;;;20.00;80.70;;;;;;5118441;28;19928;-83
2023/05/20 07:25:09;;;;;;;;;;;20.00;80.50;;;;;;5070499;28;19931;-84
2023/05/20 07:27:35;;;;;;;;;;;20.10;80.90;;;;;;5091293;28;19992;-83
2023/05/20 07:30:01;;;;;;;;;;;20.30;78.60;;;;;;5101579;28;20083;-83
2023/05/20 07:32:26;;;;;;;;;;;20.40;75.80;;;;;;5072117;28;19924;-84
2023/05/20 07:34:52;;;;;;;;;;;20.40;74.50;;;;;;5089461;28;19953;-85
2023/05/20 07:37:17;;;;;;;;;;;20.60;78.80;;;;;;5065144;28;19940;-84
2023/05/20 07:39:43;;;;;;;;;;;20.60;75.70;;;;;;5095272;28;19969;-84
2023/05/20 07:42:09;;;;;;;;;;;20.80;72.20;;;;;;5098474;28;20019;-84
2023/05/20 07:44:35;;;;;;;;;;;21.00;73.20;;;;;;5067384;28;19935;-84
2023/05/20 07:47:00;;;;;;;;;;;21.00;74.00;;;;;;5082859;28;19924;-86
2023/05/20 07:49:26;;;;;;;;;;;21.10;71.40;;;;;;5083104;28;20005;-85
2023/05/20 07:51:51;;;;;;;;;;;21.10;74.50;;;;;;5054094;28;19932;-86
2023/05/20 07:54:17;;;;;;;;;;;21.10;72.30;;;;;;5045922;28;19924;-85
2023/05/20 07:56:42;;;;;;;;;;;21.10;72.20;;;;;;5060077;28;19925;-86
2023/05/20 07:59:08;;;;;;;;;;;20.90;74.00;;;;;;5095714;28;19946;-85
2023/05/20 08:01:34;;;;;;;;;;;20.90;72.50;;;;;;5054901;28;19950;-86
2023/05/20 08:03:59;;;;;;;;;;;21.00;72.70;;;;;;5063138;28;19928;-86
2023/05/20 08:06:25;;;;;;;;;;;20.80;71.30;;;;;;5064082;28;19932;-84
2023/05/20 08:08:53;;;;;;;;;;;20.90;73.60;;;;;;5081050;28;19939;-82
2023/05/20 08:11:23;;;;;;;;;;;21.10;72.20;;;;;;5081379;28;19991;-83
2023/05/20 08:13:48;;;;;;;;;;;21.40;72.50;;;;;;5080757;28;19924;-83
2023/05/20 08:16:14;;;;;;;;;;;21.50;71.80;;;;;;5077014;28;20033;-82
2023/05/20 08:18:40;;;;;;;;;;;21.50;70.60;;;;;;5066128;28;19927;-83
2023/05/20 08:21:08;;;;;;;;;;;21.30;69.00;;;;;;5075736;28;19937;-82
2023/05/20 08:23:35;;;;;;;;;;;21.40;71.10;;;;;;5077697;28;19931;-82
2023/05/20 08:26:02;;;;;;;;;;;21.40;69.70;;;;;;5064655;28;20811;-82
2023/05/20 08:28:28;;;;;;;;;;;21.30;69.90;;;;;;5080840;28;19932;-82
2023/05/20 08:30:53;;;;;;;;;;;21.40;68.20;;;;;;5098766;28;19924;-86
2023/05/20 08:33:20;;;;;;;;;;;21.40;70.40;;;;;;5058872;28;19988;-84
2023/05/20 08:35:46;;;;;;;;;;;21.50;69.60;;;;;;5082218;28;19924;-83
2023/05/20 08:38:12;;;;;;;;;;;21.60;68.50;;;;;;5064084;28;19959;-83
2023/05/20 08:40:37;;;;;;;;;;;21.60;69.00;;;;;;5064965;28;19924;-84
2023/05/20 08:43:03;;;;;;;;;;;21.70;69.00;;;;;;5045911;28;19924;-83
2023/05/20 08:45:31;;;;;;;;;;;21.60;69.60;;;;;;5094216;28;20027;-84
2023/05/20 08:47:57;;;;;;;;;;;21.50;69.80;;;;;;5067531;28;19928;-81
2023/05/20 08:50:22;;;;;;;;;;;21.30;67.80;;;;;;5061782;28;19954;-82
2023/05/20 08:52:48;;;;;;;;;;;21.40;68.40;;;;;;5049465;28;20356;-81
2023/05/20 08:55:21;;;;;;;;;;;21.60;68.20;;;;;;5000007;28;1871561;-81
2023/05/20 08:57:50;;;;;;;;;;;21.60;69.70;;;;;;5064877;28;19924;-82
2023/05/20 09:00:17;;;;;;;;;;;21.60;67.10;;;;;;5081009;28;19938;-82
2023/05/20 09:02:45;;;;;;;;;;;21.50;67.00;;;;;;5064978;28;19959;-82
2023/05/20 09:05:11;;;;;;;;;;;21.40;67.40;;;;;;5073439;28;19924;-81
2023/05/20 09:07:37;;;;;;;;;;;21.20;65.50;;;;;;5079936;28;19985;-88
2023/05/20 09:10:03;;;;;;;;;;;21.30;69.70;;;;;;5097454;28;20191;-78
2023/05/20 09:12:29;;;;;;;;;;;21.50;67.60;;;;;;5078753;28;19924;-78
2023/05/20 09:14:54;;;;;;;;;;;21.50;67.30;;;;;;5078653;28;20448;-79
2023/05/20 09:17:20;;;;;;;;;;;21.80;69.20;;;;;;5079571;28;19928;-78
2023/05/20 09:19:50;;;;;;;;;;;22.00;67.90;;;;;;5080603;28;19928;-87
2023/05/20 09:22:22;;;;;;;;;;;22.20;66.20;;;;;;5082122;28;19924;-86
2023/05/20 09:24:49;;;;;;;;;;;22.40;67.30;;;;;;5095339;28;19924;-83
2023/05/20 09:27:15;;;;;;;;;;;22.20;66.60;;;;;;5063441;28;20351;-84
2023/05/20 09:29:42;;;;;;;;;;;22.10;66.90;;;;;;5080265;28;19928;-81
2023/05/20 09:32:12;;;;;;;;;;;22.20;64.10;;;;;;5047851;28;19924;-81
2023/05/20 09:34:37;;;;;;;;;;;22.20;65.20;;;;;;5063557;28;19954;-80
2023/05/20 09:37:06;;;;;;;;;;;22.30;65.30;;;;;;5080704;28;20758;-82
2023/05/20 09:39:33;;;;;;;;;;;22.10;65.30;;;;;;5065403;28;19974;-80
2023/05/20 09:42:04;;;;;;;;;;;22.00;64.80;;;;;;5063569;28;19924;-80
2023/05/20 09:44:31;;;;;;;;;;;22.10;67.00;;;;;;5063544;28;19932;-80
2023/05/20 09:46:56;;;;;;;;;;;22.50;65.80;;;;;;5079959;28;20331;-80
2023/05/20 09:49:22;;;;;;;;;;;22.80;64.40;;;;;;5045086;28;19944;-81
2023/05/20 09:51:49;;;;;;;;;;;23.10;64.80;;;;;;5080850;28;19932;-80
2023/05/20 09:54:16;;;;;;;;;;;23.20;61.00;;;;;;5061883;28;19985;-80
2023/05/20 09:56:43;;;;;;;;;;;23.10;61.90;;;;;;5066060;28;19935;-81
2023/05/20 09:59:09;;;;;;;;;;;22.90;64.60;;;;;;5095390;28;19932;-81
2023/05/20 10:01:35;;;;;;;;;;;23.00;62.00;;;;;;5064180;28;19924;-80
2023/05/20 10:04:02;;;;;;;;;;;23.10;60.50;;;;;;5078718;28;19935;-80
2023/05/20 10:06:28;;;;;;;;;;;23.00;60.00;;;;;;5080907;28;19924;-80
2023/05/20 10:09:01;;;;;;;;;;;22.90;58.20;;;;;;5097959;28;19924;-79
2023/05/20 10:11:34;;;;;;;;;;;22.60;61.20;;;;;;5061024;28;20394;-80
2023/05/20 10:14:00;;;;;;;;;;;22.70;61.70;;;;;;5091788;28;19935;-79
2023/05/20 10:16:48;;;;;;;;;;;22.90;62.60;;;;;;5061730;28;19928;-80
2023/05/20 10:19:17;;;;;;;;;;;23.00;59.20;;;;;;5060305;28;19924;-79
2023/05/20 10:21:42;;;;;;;;;;;23.00;63.60;;;;;;5073366;28;19955;-80
2023/05/20 10:24:08;;;;;;;;;;;22.70;60.40;;;;;;5077700;28;19963;-82
2023/05/20 10:26:38;;;;;;;;;;;22.50;57.90;;;;;;5079305;28;19924;-83
2023/05/20 10:29:13;;;;;;;;;;;22.40;62.60;;;;;;5078095;28;20023;-81
2023/05/20 10:31:43;;;;;;;;;;;22.30;59.80;;;;;;5062523;28;20005;-82
2023/05/20 10:34:13;;;;;;;;;;;22.40;60.20;;;;;;5061623;28;19936;-82
2023/05/20 10:36:44;;;;;;;;;;;22.60;62.70;;;;;;5059408;28;19950;-80
2023/05/20 10:39:14;;;;;;;;;;;22.40;59.10;;;;;;5062960;28;19934;-80
2023/05/20 10:41:39;;;;;;;;;;;22.20;60.40;;;;;;5061936;28;19928;-80
2023/05/20 10:44:05;;;;;;;;;;;22.00;60.60;;;;;;5063263;28;20311;-80
2023/05/20 10:46:31;;;;;;;;;;;22.00;61.10;;;;;;5051090;28;19924;-80
2023/05/20 10:48:57;;;;;;;;;;;22.00;59.80;;;;;;5070150;28;20393;-80
2023/05/20 10:51:24;;;;;;;;;;;22.10;61.90;;;;;;5077609;28;19931;-80
2023/05/20 10:53:52;;;;;;;;;;;22.10;59.20;;;;;;5064075;28;19935;-80
2023/05/20 10:56:19;;;;;;;;;;;22.00;60.20;;;;;;5052638;28;19924;-80
2023/05/20 10:58:44;;;;;;;;;;;21.60;59.90;;;;;;5056183;28;19933;-80
2023/05/20 11:01:10;;;;;;;;;;;21.30;60.50;;;;;;5074055;28;20000;-82
2023/05/20 11:03:37;;;;;;;;;;;21.40;62.50;;;;;;5059194;28;19947;-80
2023/05/20 11:06:16;;;;;;;;;;;21.30;60.80;;;;;;5054632;28;20042;-79
2023/05/20 11:08:42;;;;;;;;;;;21.20;59.50;;;;;;5074049;28;19928;-86
2023/05/20 11:11:09;;;;;;;;;;;20.60;59.80;;;;;;5059252;28;20010;-83
2023/05/20 11:13:35;;;;;;;;;;;20.40;61.00;;;;;;5063744;28;20070;-80
2023/05/20 11:16:01;;;;;;;;;;;20.30;62.80;;;;;;5074147;28;19924;-80
2023/05/20 11:18:29;;;;;;;;;;;20.40;64.70;;;;;;5060541;28;20022;-84
2023/05/20 11:20:55;;;;;;;;;;;20.60;62.80;;;;;;5060117;28;19931;-81
2023/05/20 11:23:22;;;;;;;;;;;20.80;62.90;;;;;;5038254;28;19928;-80
2023/05/20 11:25:51;;;;;;;;;;;21.20;62.40;;;;;;5089991;28;19943;-79
2023/05/20 11:28:18;;;;;;;;;;;21.90;64.70;;;;;;5089312;28;19929;-79
2023/05/20 11:30:44;;;;;;;;;;;22.40;61.90;;;;;;5061883;28;19924;-79
2023/05/20 11:33:13;;;;;;;;;;;22.60;60.60;;;;;;5093462;28;19934;-80
2023/05/20 11:35:46;;;;;;;;;;;22.70;60.80;;;;;;5066138;28;19924;-79
2023/05/20 11:38:12;;;;;;;;;;;22.70;59.00;;;;;;5064368;28;20353;-79
2023/05/20 11:40:41;;;;;;;;;;;22.70;58.50;;;;;;5061890;28;19924;-79
2023/05/20 11:43:09;;;;;;;;;;;22.50;58.50;;;;;;5093873;28;20034;-80
2023/05/20 11:45:42;;;;;;;;;;;22.60;58.60;;;;;;5062672;28;20144;-82
2023/05/20 11:48:08;;;;;;;;;;;22.70;58.70;;;;;;5111408;28;19924;-82
2023/05/20 11:50:35;;;;;;;;;;;22.70;58.50;;;;;;5063813;28;19986;-79
2023/05/20 11:53:04;;;;;;;;;;;22.90;60.60;;;;;;5065217;28;19982;-79
2023/05/20 11:55:31;;;;;;;;;;;23.30;61.00;;;;;;5065659;28;19928;-80
2023/05/20 11:57:57;;;;;;;;;;;23.40;57.00;;;;;;5082540;28;19935;-81
2023/05/20 12:00:22;;;;;;;;;;;23.60;58.40;;;;;;5054813;28;20055;-80
2023/05/20 12:02:48;;;;;;;;;;;23.30;56.40;;;;;;5078032;28;19983;-80
2023/05/20 12:05:14;;;;;;;;;;;22.90;57.10;;;;;;5071060;28;19967;-80
2023/05/20 12:07:40;;;;;;;;;;;22.80;58.90;;;;;;5060712;28;19932;-80
2023/05/20 12:10:07;;;;;;;;;;;22.70;57.50;;;;;;5071971;28;19931;-80
2023/05/20 12:12:32;;;;;;;;;;;22.90;57.80;;;;;;5081873;28;20374;-80
2023/05/20 12:14:58;;;;;;;;;;;23.00;60.00;;;;;;5100480;28;19932;-81
2023/05/20 12:17:23;;;;;;;;;;;23.00;58.00;;;;;;5070231;28;19984;-82
2023/05/20 12:19:49;;;;;;;;;;;22.80;57.00;;;;;;5060686;28;19932;-81
2023/05/20 12:22:15;;;;;;;;;;;22.70;58.70;;;;;;5086845;28;19924;-80
2023/05/20 12:24:40;;;;;;;;;;;22.70;57.80;;;;;;5075197;28;19929;-77
2023/05/20 12:27:06;;;;;;;;;;;22.70;57.80;;;;;;5063587;28;19924;-79
2023/05/20 12:29:32;;;;;;;;;;;23.00;60.00;;;;;;5052965;28;19936;-79
2023/05/20 12:31:58;;;;;;;;;;;23.20;59.20;;;;;;5062359;28;20347;-79
2023/05/20 12:34:24;;;;;;;;;;;23.30;57.80;;;;;;5081094;28;19925;-78
2023/05/20 12:36:49;;;;;;;;;;;23.30;57.70;;;;;;5084455;28;20007;-78
2023/05/20 12:39:17;;;;;;;;;;;23.40;58.80;;;;;;5085016;28;20474;-81
2023/05/20 12:41:42;;;;;;;;;;;23.40;56.70;;;;;;5063935;28;19924;-80
2023/05/20 12:44:08;;;;;;;;;;;23.20;58.20;;;;;;5079339;28;19946;-79
2023/05/20 12:46:37;;;;;;;;;;;22.70;56.90;;;;;;5071168;28;19987;-78
2023/05/20 12:49:02;;;;;;;;;;;22.40;58.30;;;;;;5066409;28;19961;-78
2023/05/20 12:51:28;;;;;;;;;;;22.00;58.20;;;;;;5064795;28;20007;-79
2023/05/20 12:53:54;;;;;;;;;;;21.70;59.00;;;;;;5083796;28;19928;-78
2023/05/20 12:56:20;;;;;;;;;;;21.50;59.90;;;;;;5088557;28;19989;-78
2023/05/20 12:58:45;;;;;;;;;;;21.30;59.90;;;;;;5059931;28;19924;-80
2023/05/20 13:01:11;;;;;;;;;;;21.20;59.90;;;;;;5046978;28;19932;-78
2023/05/20 13:03:37;;;;;;;;;;;21.20;60.00;;;;;;5045131;28;19924;-79
2023/05/20 13:06:03;;;;;;;;;;;21.30;60.00;;;;;;5095947;28;19945;-78
2023/05/20 13:08:28;;;;;;;;;;;21.30;60.20;;;;;;5048904;28;19924;-87
2023/05/20 13:10:54;;;;;;;;;;;21.20;60.60;;;;;;5058658;28;19950;-86
2023/05/20 13:13:20;;;;;;;;;;;21.30;59.20;;;;;;5080027;28;19982;-85
2023/05/20 13:15:49;;;;;;;;;;;21.20;59.40;;;;;;5087845;28;19924;-85
2023/05/20 13:18:18;;;;;;;;;;;21.20;60.60;;;;;;5097168;28;19924;-89
2023/05/20 13:20:44;;;;;;;;;;;21.20;60.20;;;;;;5049623;28;19924;-89
2023/05/20 13:23:10;;;;;;;;;;;21.30;61.10;;;;;;5114614;28;19928;-89
2023/05/20 13:25:35;;;;;;;;;;;21.40;58.90;;;;;;5048917;28;20021;-92
2023/05/20 13:28:02;;;;;;;;;;;21.20;59.40;;;;;;5076731;28;20190;-92
2023/05/20 13:30:27;;;;;;;;;;;21.20;60.40;;;;;;5063004;28;19924;-92
2023/05/20 13:32:53;;;;;;;;;;;21.30;60.60;;;;;;5083082;28;19923;-90
2023/05/20 13:35:19;;;;;;;;;;;21.20;58.80;;;;;;5092172;28;20002;-90
2023/05/20 13:37:44;;;;;;;;;;;21.20;61.20;;;;;;5078103;28;19924;-90
2023/05/20 13:40:10;;;;;;;;;;;21.10;59.60;;;;;;5081022;28;19924;-85
2023/05/20 13:42:36;;;;;;;;;;;21.10;58.50;;;;;;5059734;28;19924;-90
2023/05/20 13:45:02;;;;;;;;;;;21.10;60.00;;;;;;5061928;28;19924;-90
2023/05/20 13:47:27;;;;;;;;;;;21.00;59.70;;;;;;5104814;28;19924;-90
2023/05/20 13:49:53;;;;;;;;;;;20.90;60.20;;;;;;5045600;28;19924;-89
2023/05/20 13:52:18;;;;;;;;;;;20.90;61.00;;;;;;5064261;28;19924;-89
2023/05/20 13:54:46;;;;;;;;;;;20.90;59.80;;;;;;5059556;28;19943;-88
2023/05/20 13:57:11;;;;;;;;;;;21.00;60.70;;;;;;5072576;28;20023;-78
2023/05/20 13:59:37;;;;;;;;;;;21.30;60.40;;;;;;5069965;28;19971;-84
2023/05/20 14:02:03;;;;;;;;;;;21.50;59.10;;;;;;5039579;28;19929;-81
2023/05/20 14:04:29;;;;;;;;;;;21.60;58.80;;;;;;5060502;28;19924;-81
2023/05/20 14:06:55;;;;;;;;;;;21.60;59.20;;;;;;5059459;28;19958;-82
2023/05/20 14:09:21;;;;;;;;;;;21.50;57.60;;;;;;5074841;28;19924;-80